sensor_id;sensor_type;location;lat;lon;timestamp;temperature;humidity
8436;DHT22;4255;48.730;9.156;2023-07-02T00:00:27;17.50;99.90
8436;DHT22;4255;48.730;9.156;2023-07-02T00:02:52;17.50;99.90
8436;DHT22;4255;48.730;9.156;2023-07-02T00:05:18;17.50;99.90
8436;DHT22;4255;48.730;9.156;2023-07-02T00:07:43;17.60;99.90
8436;DHT22;4255;48.730;9.156;2023-07-02T00:10:11;17.70;99.90
8436;DHT22;4255;48.730;9.156;2023-07-02T00:12:37;17.60;99.90
8436;DHT22;4255;48.730;9.156;2023-07-02T00:15:03;17.70;99.90
8436;DHT22;4255;48.730;9.156;2023-07-02T00:17:29;17.80;99.90
8436;DHT22;4255;48.730;9.156;2023-07-02T00:19:55;17.90;99.90
8436;DHT22;4255;48.730;9.156;2023-07-02T00:22:21;18.00;99.90
8436;DHT22;4255;48.730;9.156;2023-07-02T00:24:46;17.80;99.90
8436;DHT22;4255;48.730;9.156;2023-07-02T00:27:12;17.70;99.90
8436;DHT22;4255;48.730;9.156;2023-07-02T00:29:38;17.70;99.90
8436;DHT22;4255;48.730;9.156;2023-07-02T00:32:04;17.50;99.90
8436;DHT22;4255;48.730;9.156;2023-07-02T00:34:30;17.70;99.90
8436;DHT22;4255;48.730;9.156;2023-07-02T00:36:55;17.60;99.90
8436;DHT22;4255;48.730;9.156;2023-07-02T00:39:21;17.60;99.90
8436;DHT22;4255;48.730;9.156;2023-07-02T00:41:47;17.50;99.90
8436;DHT22;4255;48.730;9.156;2023-07-02T00:44:13;17.60;99.90
8436;DHT22;4255;48.730;9.156;2023-07-02T00:46:38;17.50;99.90
8436;DHT22;4255;48.730;9.156;2023-07-02T00:49:04;17.50;99.90
8436;DHT22;4255;48.730;9.156;2023-07-02T00:51:30;17.40;99.90
8436;DHT22;4255;48.730;9.156;2023-07-02T00:53:58;17.40;99.90
8436;DHT22;4255;48.730;9.156;2023-07-02T00:56:25;17.20;99.90
8436;DHT22;4255;48.730;9.156;2023-07-02T00:58:52;17.10;99.90
8436;DHT22;4255;48.730;9.156;2023-07-02T01:01:23;17.30;99.90
8436;DHT22;4255;48.730;9.156;2023-07-02T01:03:55;17.30;99.90
8436;DHT22;4255;48.730;9.156;2023-07-02T01:06:29;17.30;99.90
8436;DHT22;4255;48.730;9.156;2023-07-02T01:08:57;17.40;99.90
8436;DHT22;4255;48.730;9.156;2023-07-02T01:11:42;17.50;99.90
8436;DHT22;4255;48.730;9.156;2023-07-02T01:14:31;17.60;99.90
8436;DHT22;4255;48.730;9.156;2023-07-02T01:16:59;17.70;99.90
8436;DHT22;4255;48.730;9.156;2023-07-02T01:19:45;17.70;99.90
8436;DHT22;4255;48.730;9.156;2023-07-02T01:22:17;17.80;99.90
8436;DHT22;4255;48.730;9.156;2023-07-02T01:24:43;17.70;99.90
8436;DHT22;4255;48.730;9.156;2023-07-02T01:27:09;17.60;99.90
8436;DHT22;4255;48.730;9.156;2023-07-02T01:29:36;17.60;99.90
8436;DHT22;4255;48.730;9.156;2023-07-02T01:32:02;17.50;99.90
8436;DHT22;4255;48.730;9.156;2023-07-02T01:34:28;17.60;99.90
8436;DHT22;4255;48.730;9.156;2023-07-02T01:36:54;17.70;99.90
8436;DHT22;4255;48.730;9.156;2023-07-02T01:39:19;17.90;99.90
8436;DHT22;4255;48.730;9.156;2023-07-02T01:44:15;17.80;99.90
8436;DHT22;4255;48.730;9.156;2023-07-02T01:46:41;17.60;99.90
8436;DHT22;4255;48.730;9.156;2023-07-02T01:49:07;17.70;99.90
8436;DHT22;4255;48.730;9.156;2023-07-02T01:51:33;17.70;99.90
8436;DHT22;4255;48.730;9.156;2023-07-02T01:53:59;17.80;99.90
8436;DHT22;4255;48.730;9.156;2023-07-02T01:56:24;17.90;99.90
8436;DHT22;4255;48.730;9.156;2023-07-02T01:58:50;18.00;99.90
8436;DHT22;4255;48.730;9.156;2023-07-02T02:01:16;18.00;99.90
8436;DHT22;4255;48.730;9.156;2023-07-02T02:03:41;18.10;99.90
8436;DHT22;4255;48.730;9.156;2023-07-02T02:06:07;18.10;99.90
8436;DHT22;4255;48.730;9.156;2023-07-02T02:08:33;18.10;99.90
8436;DHT22;4255;48.730;9.156;2023-07-02T02:10:58;18.10;99.90
8436;DHT22;4255;48.730;9.156;2023-07-02T02:13:26;18.10;99.90
8436;DHT22;4255;48.730;9.156;2023-07-02T02:15:51;18.10;99.90
8436;DHT22;4255;48.730;9.156;2023-07-02T02:18:17;18.10;99.90
8436;DHT22;4255;48.730;9.156;2023-07-02T02:20:43;18.20;99.90
8436;DHT22;4255;48.730;9.156;2023-07-02T02:23:08;18.20;99.90
8436;DHT22;4255;48.730;9.156;2023-07-02T02:25:34;18.30;99.90
8436;DHT22;4255;48.730;9.156;2023-07-02T02:27:59;18.30;99.90
8436;DHT22;4255;48.730;9.156;2023-07-02T02:30:25;18.40;99.90
8436;DHT22;4255;48.730;9.156;2023-07-02T02:32:51;18.30;99.90
8436;DHT22;4255;48.730;9.156;2023-07-02T02:35:16;18.50;99.90
8436;DHT22;4255;48.730;9.156;2023-07-02T02:37:42;18.40;99.90
8436;DHT22;4255;48.730;9.156;2023-07-02T02:40:08;18.50;99.90
8436;DHT22;4255;48.730;9.156;2023-07-02T02:42:38;18.50;99.90
8436;DHT22;4255;48.730;9.156;2023-07-02T02:45:04;18.50;99.90
8436;DHT22;4255;48.730;9.156;2023-07-02T02:47:29;18.50;99.90
8436;DHT22;4255;48.730;9.156;2023-07-02T02:49:55;18.60;99.90
8436;DHT22;4255;48.730;9.156;2023-07-02T02:52:20;18.60;99.90
8436;DHT22;4255;48.730;9.156;2023-07-02T02:54:46;18.60;99.90
8436;DHT22;4255;48.730;9.156;2023-07-02T02:57:12;18.50;99.90
8436;DHT22;4255;48.730;9.156;2023-07-02T02:59:38;18.50;99.90
8436;DHT22;4255;48.730;9.156;2023-07-02T03:02:04;18.30;99.90
8436;DHT22;4255;48.730;9.156;2023-07-02T03:04:30;18.10;99.90
8436;DHT22;4255;48.730;9.156;2023-07-02T03:06:56;18.00;99.90
8436;DHT22;4255;48.730;9.156;2023-07-02T03:09:22;17.50;99.90
8436;DHT22;4255;48.730;9.156;2023-07-02T03:11:47;17.40;99.90
8436;DHT22;4255;48.730;9.156;2023-07-02T03:14:13;17.40;99.90
8436;DHT22;4255;48.730;9.156;2023-07-02T03:16:41;17.20;99.90
8436;DHT22;4255;48.730;9.156;2023-07-02T03:19:07;16.80;99.90
8436;DHT22;4255;48.730;9.156;2023-07-02T03:21:33;16.70;99.90
8436;DHT22;4255;48.730;9.156;2023-07-02T03:23:58;16.70;99.90
8436;DHT22;4255;48.730;9.156;2023-07-02T03:26:24;16.50;99.90
8436;DHT22;4255;48.730;9.156;2023-07-02T03:28:50;16.30;99.90
8436;DHT22;4255;48.730;9.156;2023-07-02T03:31:15;15.90;99.90
8436;DHT22;4255;48.730;9.156;2023-07-02T03:33:41;15.70;99.90
8436;DHT22;4255;48.730;9.156;2023-07-02T03:36:06;15.80;99.90
8436;DHT22;4255;48.730;9.156;2023-07-02T03:38:32;15.80;99.90
8436;DHT22;4255;48.730;9.156;2023-07-02T03:40:58;15.70;99.90
8436;DHT22;4255;48.730;9.156;2023-07-02T03:43:23;15.70;99.90
8436;DHT22;4255;48.730;9.156;2023-07-02T03:45:52;15.40;99.90
8436;DHT22;4255;48.730;9.156;2023-07-02T03:48:18;15.50;99.90
8436;DHT22;4255;48.730;9.156;2023-07-02T03:50:43;15.50;99.90
8436;DHT22;4255;48.730;9.156;2023-07-02T03:53:09;15.50;99.90
8436;DHT22;4255;48.730;9.156;2023-07-02T03:55:35;15.40;99.90
8436;DHT22;4255;48.730;9.156;2023-07-02T03:58:01;15.50;99.90
8436;DHT22;4255;48.730;9.156;2023-07-02T04:00:27;15.40;99.90
8436;DHT22;4255;48.730;9.156;2023-07-02T04:02:52;15.30;99.90
8436;DHT22;4255;48.730;9.156;2023-07-02T04:05:18;15.30;99.90
8436;DHT22;4255;48.730;9.156;2023-07-02T04:07:45;15.30;99.90
8436;DHT22;4255;48.730;9.156;2023-07-02T04:10:11;15.30;99.90
8436;DHT22;4255;48.730;9.156;2023-07-02T04:12:36;15.30;99.90
8436;DHT22;4255;48.730;9.156;2023-07-02T04:15:02;15.30;99.90
8436;DHT22;4255;48.730;9.156;2023-07-02T04:17:28;15.40;99.90
8436;DHT22;4255;48.730;9.156;2023-07-02T04:19:54;15.30;99.90
8436;DHT22;4255;48.730;9.156;2023-07-02T04:22:20;15.30;99.90
8436;DHT22;4255;48.730;9.156;2023-07-02T04:24:46;15.40;99.90
8436;DHT22;4255;48.730;9.156;2023-07-02T04:27:16;15.60;99.90
8436;DHT22;4255;48.730;9.156;2023-07-02T04:29:52;15.80;99.90
8436;DHT22;4255;48.730;9.156;2023-07-02T04:32:18;15.50;99.90
8436;DHT22;4255;48.730;9.156;2023-07-02T04:34:43;15.70;99.90
8436;DHT22;4255;48.730;9.156;2023-07-02T04:37:09;15.80;99.90
8436;DHT22;4255;48.730;9.156;2023-07-02T04:39:35;16.00;99.90
8436;DHT22;4255;48.730;9.156;2023-07-02T04:42:00;16.10;99.90
8436;DHT22;4255;48.730;9.156;2023-07-02T04:44:26;16.20;99.90
8436;DHT22;4255;48.730;9.156;2023-07-02T04:46:58;16.30;99.90
8436;DHT22;4255;48.730;9.156;2023-07-02T04:49:24;16.20;99.90
8436;DHT22;4255;48.730;9.156;2023-07-02T04:51:50;16.20;99.90
8436;DHT22;4255;48.730;9.156;2023-07-02T04:54:16;16.10;99.90
8436;DHT22;4255;48.730;9.156;2023-07-02T04:56:42;16.00;99.90
8436;DHT22;4255;48.730;9.156;2023-07-02T04:59:07;16.00;99.90
8436;DHT22;4255;48.730;9.156;2023-07-02T05:01:33;16.00;99.90
8436;DHT22;4255;48.730;9.156;2023-07-02T05:03:58;16.10;99.90
8436;DHT22;4255;48.730;9.156;2023-07-02T05:06:24;16.10;99.90
8436;DHT22;4255;48.730;9.156;2023-07-02T05:08:50;16.30;99.90
8436;DHT22;4255;48.730;9.156;2023-07-02T05:11:15;16.30;99.90
8436;DHT22;4255;48.730;9.156;2023-07-02T05:13:41;16.40;99.90
8436;DHT22;4255;48.730;9.156;2023-07-02T05:16:06;16.40;99.90
8436;DHT22;4255;48.730;9.156;2023-07-02T05:18:33;16.30;99.90
8436;DHT22;4255;48.730;9.156;2023-07-02T05:20:58;16.40;99.90
8436;DHT22;4255;48.730;9.156;2023-07-02T05:23:24;16.40;99.90
8436;DHT22;4255;48.730;9.156;2023-07-02T05:25:49;16.40;99.90
8436;DHT22;4255;48.730;9.156;2023-07-02T05:28:15;16.40;99.90
8436;DHT22;4255;48.730;9.156;2023-07-02T05:30:41;16.40;99.90
8436;DHT22;4255;48.730;9.156;2023-07-02T05:33:06;16.40;99.90
8436;DHT22;4255;48.730;9.156;2023-07-02T05:35:32;16.40;99.90
8436;DHT22;4255;48.730;9.156;2023-07-02T05:37:58;16.50;99.90
8436;DHT22;4255;48.730;9.156;2023-07-02T05:40:23;16.40;99.90
8436;DHT22;4255;48.730;9.156;2023-07-02T05:42:49;16.40;99.90
8436;DHT22;4255;48.730;9.156;2023-07-02T05:45:14;16.40;99.90
8436;DHT22;4255;48.730;9.156;2023-07-02T05:47:40;16.50;99.90
8436;DHT22;4255;48.730;9.156;2023-07-02T05:50:07;16.50;99.90
8436;DHT22;4255;48.730;9.156;2023-07-02T05:52:33;16.50;99.90
8436;DHT22;4255;48.730;9.156;2023-07-02T05:54:58;16.60;99.90
8436;DHT22;4255;48.730;9.156;2023-07-02T05:57:24;16.60;99.90
8436;DHT22;4255;48.730;9.156;2023-07-02T05:59:49;16.70;99.90
8436;DHT22;4255;48.730;9.156;2023-07-02T06:02:15;16.90;99.90
8436;DHT22;4255;48.730;9.156;2023-07-02T06:04:41;17.20;99.90
8436;DHT22;4255;48.730;9.156;2023-07-02T06:07:06;17.30;99.90
8436;DHT22;4255;48.730;9.156;2023-07-02T06:09:32;17.40;99.90
8436;DHT22;4255;48.730;9.156;2023-07-02T06:11:58;17.60;99.90
8436;DHT22;4255;48.730;9.156;2023-07-02T06:14:24;17.70;99.90
8436;DHT22;4255;48.730;9.156;2023-07-02T06:16:51;17.90;99.90
8436;DHT22;4255;48.730;9.156;2023-07-02T06:19:17;18.10;99.90
8436;DHT22;4255;48.730;9.156;2023-07-02T06:21:43;18.30;99.90
8436;DHT22;4255;48.730;9.156;2023-07-02T06:24:09;18.30;99.90
8436;DHT22;4255;48.730;9.156;2023-07-02T06:26:34;18.30;99.90
8436;DHT22;4255;48.730;9.156;2023-07-02T06:29:00;18.30;99.90
8436;DHT22;4255;48.730;9.156;2023-07-02T06:31:26;18.40;99.90
8436;DHT22;4255;48.730;9.156;2023-07-02T06:33:52;18.40;99.90
8436;DHT22;4255;48.730;9.156;2023-07-02T06:36:18;18.70;99.90
8436;DHT22;4255;48.730;9.156;2023-07-02T06:38:44;18.70;99.90
8436;DHT22;4255;48.730;9.156;2023-07-02T06:41:10;18.70;99.90
8436;DHT22;4255;48.730;9.156;2023-07-02T06:43:36;18.40;99.90
8436;DHT22;4255;48.730;9.156;2023-07-02T06:46:02;18.30;99.90
8436;DHT22;4255;48.730;9.156;2023-07-02T06:48:27;18.40;99.90
8436;DHT22;4255;48.730;9.156;2023-07-02T06:50:53;18.70;99.90
8436;DHT22;4255;48.730;9.156;2023-07-02T06:53:18;18.40;99.90
8436;DHT22;4255;48.730;9.156;2023-07-02T06:55:44;18.30;99.90
8436;DHT22;4255;48.730;9.156;2023-07-02T06:58:10;18.30;99.90
8436;DHT22;4255;48.730;9.156;2023-07-02T07:00:35;18.50;99.90
8436;DHT22;4255;48.730;9.156;2023-07-02T07:03:02;18.60;99.90
8436;DHT22;4255;48.730;9.156;2023-07-02T07:05:32;18.90;99.90
8436;DHT22;4255;48.730;9.156;2023-07-02T07:07:59;18.90;99.90
8436;DHT22;4255;48.730;9.156;2023-07-02T07:10:25;18.80;99.90
8436;DHT22;4255;48.730;9.156;2023-07-02T07:12:53;18.60;99.90
8436;DHT22;4255;48.730;9.156;2023-07-02T07:15:19;18.60;99.90
8436;DHT22;4255;48.730;9.156;2023-07-02T07:17:44;18.80;99.90
8436;DHT22;4255;48.730;9.156;2023-07-02T07:20:10;19.00;99.90
8436;DHT22;4255;48.730;9.156;2023-07-02T07:22:36;18.90;99.90
8436;DHT22;4255;48.730;9.156;2023-07-02T07:25:02;18.70;99.90
8436;DHT22;4255;48.730;9.156;2023-07-02T07:27:28;18.70;99.90
8436;DHT22;4255;48.730;9.156;2023-07-02T07:29:53;18.80;99.90
8436;DHT22;4255;48.730;9.156;2023-07-02T07:32:20;19.10;99.90
8436;DHT22;4255;48.730;9.156;2023-07-02T07:34:46;19.20;99.90
8436;DHT22;4255;48.730;9.156;2023-07-02T07:37:11;19.60;99.90
8436;DHT22;4255;48.730;9.156;2023-07-02T07:39:37;19.60;99.90
8436;DHT22;4255;48.730;9.156;2023-07-02T07:42:03;19.80;99.90
8436;DHT22;4255;48.730;9.156;2023-07-02T07:44:28;19.80;99.90
8436;DHT22;4255;48.730;9.156;2023-07-02T07:46:55;19.60;99.90
8436;DHT22;4255;48.730;9.156;2023-07-02T07:49:21;19.80;99.90
8436;DHT22;4255;48.730;9.156;2023-07-02T07:51:47;19.70;99.90
8436;DHT22;4255;48.730;9.156;2023-07-02T07:54:13;19.70;99.90
8436;DHT22;4255;48.730;9.156;2023-07-02T07:56:39;19.40;99.90
8436;DHT22;4255;48.730;9.156;2023-07-02T07:59:04;19.60;99.90
8436;DHT22;4255;48.730;9.156;2023-07-02T08:01:30;19.80;99.90
8436;DHT22;4255;48.730;9.156;2023-07-02T08:03:55;19.90;99.90
8436;DHT22;4255;48.730;9.156;2023-07-02T08:06:21;19.70;99.90
8436;DHT22;4255;48.730;9.156;2023-07-02T08:08:47;19.90;99.90
8436;DHT22;4255;48.730;9.156;2023-07-02T08:11:12;20.10;99.90
8436;DHT22;4255;48.730;9.156;2023-07-02T08:13:39;20.50;99.90
8436;DHT22;4255;48.730;9.156;2023-07-02T08:16:04;20.80;99.90
8436;DHT22;4255;48.730;9.156;2023-07-02T08:18:30;20.70;99.90
8436;DHT22;4255;48.730;9.156;2023-07-02T08:20:56;20.70;99.90
8436;DHT22;4255;48.730;9.156;2023-07-02T08:23:22;20.20;99.90
8436;DHT22;4255;48.730;9.156;2023-07-02T08:25:47;20.00;99.90
8436;DHT22;4255;48.730;9.156;2023-07-02T08:28:14;19.70;99.90
8436;DHT22;4255;48.730;9.156;2023-07-02T08:30:40;20.00;99.90
8436;DHT22;4255;48.730;9.156;2023-07-02T08:33:05;20.30;99.90
8436;DHT22;4255;48.730;9.156;2023-07-02T08:35:31;20.50;99.90
8436;DHT22;4255;48.730;9.156;2023-07-02T08:37:56;21.00;99.90
8436;DHT22;4255;48.730;9.156;2023-07-02T08:40:22;21.30;99.90
8436;DHT22;4255;48.730;9.156;2023-07-02T08:42:48;21.40;99.90
8436;DHT22;4255;48.730;9.156;2023-07-02T08:45:17;21.30;99.90
8436;DHT22;4255;48.730;9.156;2023-07-02T08:47:44;20.80;99.90
8436;DHT22;4255;48.730;9.156;2023-07-02T08:50:11;20.40;99.90
8436;DHT22;4255;48.730;9.156;2023-07-02T08:52:37;20.50;99.90
8436;DHT22;4255;48.730;9.156;2023-07-02T08:55:03;20.50;99.90
8436;DHT22;4255;48.730;9.156;2023-07-02T08:57:29;20.50;99.90
8436;DHT22;4255;48.730;9.156;2023-07-02T08:59:54;20.60;99.90
8436;DHT22;4255;48.730;9.156;2023-07-02T09:02:31;20.50;99.90
8436;DHT22;4255;48.730;9.156;2023-07-02T09:05:03;20.60;99.90
8436;DHT22;4255;48.730;9.156;2023-07-02T09:07:30;20.80;99.90
8436;DHT22;4255;48.730;9.156;2023-07-02T09:09:55;21.10;99.90
8436;DHT22;4255;48.730;9.156;2023-07-02T09:12:29;21.50;99.90
8436;DHT22;4255;48.730;9.156;2023-07-02T09:17:27;21.40;99.90
8436;DHT22;4255;48.730;9.156;2023-07-02T09:19:53;21.30;99.90
8436;DHT22;4255;48.730;9.156;2023-07-02T09:22:19;21.60;99.90
8436;DHT22;4255;48.730;9.156;2023-07-02T09:24:55;21.90;99.90
8436;DHT22;4255;48.730;9.156;2023-07-02T09:27:21;21.70;99.90
8436;DHT22;4255;48.730;9.156;2023-07-02T09:29:52;21.80;99.90
8436;DHT22;4255;48.730;9.156;2023-07-02T09:32:25;21.90;99.90
8436;DHT22;4255;48.730;9.156;2023-07-02T09:34:57;22.00;99.90
8436;DHT22;4255;48.730;9.156;2023-07-02T09:37:23;21.70;99.90
8436;DHT22;4255;48.730;9.156;2023-07-02T09:39:53;21.50;99.90
8436;DHT22;4255;48.730;9.156;2023-07-02T09:42:21;21.60;99.90
8436;DHT22;4255;48.730;9.156;2023-07-02T09:44:47;21.70;99.90
8436;DHT22;4255;48.730;9.156;2023-07-02T09:47:15;22.00;99.90
8436;DHT22;4255;48.730;9.156;2023-07-02T09:49:49;21.70;99.90
8436;DHT22;4255;48.730;9.156;2023-07-02T09:52:15;21.50;99.90
8436;DHT22;4255;48.730;9.156;2023-07-02T09:54:42;21.40;99.90
8436;DHT22;4255;48.730;9.156;2023-07-02T09:57:07;21.40;99.90
8436;DHT22;4255;48.730;9.156;2023-07-02T09:59:33;21.10;99.90
8436;DHT22;4255;48.730;9.156;2023-07-02T10:02:00;21.30;99.90
8436;DHT22;4255;48.730;9.156;2023-07-02T10:04:25;21.40;99.90
8436;DHT22;4255;48.730;9.156;2023-07-02T10:09:19;21.50;99.90
8436;DHT22;4255;48.730;9.156;2023-07-02T10:11:45;21.70;99.90
8436;DHT22;4255;48.730;9.156;2023-07-02T10:14:11;22.10;99.90
8436;DHT22;4255;48.730;9.156;2023-07-02T10:16:54;22.20;99.90
8436;DHT22;4255;48.730;9.156;2023-07-02T10:19:20;21.90;99.90
8436;DHT22;4255;48.730;9.156;2023-07-02T10:21:46;22.10;99.90
8436;DHT22;4255;48.730;9.156;2023-07-02T10:24:16;22.50;99.90
8436;DHT22;4255;48.730;9.156;2023-07-02T10:27:11;22.60;99.90
8436;DHT22;4255;48.730;9.156;2023-07-02T10:29:38;23.00;99.90
8436;DHT22;4255;48.730;9.156;2023-07-02T10:32:03;23.10;99.90
8436;DHT22;4255;48.730;9.156;2023-07-02T10:34:34;22.80;99.90
8436;DHT22;4255;48.730;9.156;2023-07-02T10:37:01;22.60;99.90
8436;DHT22;4255;48.730;9.156;2023-07-02T10:39:28;22.10;99.90
8436;DHT22;4255;48.730;9.156;2023-07-02T10:42:06;22.50;99.90
8436;DHT22;4255;48.730;9.156;2023-07-02T10:44:33;22.90;99.90
8436;DHT22;4255;48.730;9.156;2023-07-02T10:46:59;23.10;99.90
8436;DHT22;4255;48.730;9.156;2023-07-02T10:49:32;22.70;99.90
8436;DHT22;4255;48.730;9.156;2023-07-02T10:52:02;22.90;99.90
8436;DHT22;4255;48.730;9.156;2023-07-02T10:54:43;22.90;99.90
8436;DHT22;4255;48.730;9.156;2023-07-02T10:57:10;23.00;99.90
8436;DHT22;4255;48.730;9.156;2023-07-02T10:59:37;23.10;99.90
8436;DHT22;4255;48.730;9.156;2023-07-02T11:02:03;23.60;99.90
8436;DHT22;4255;48.730;9.156;2023-07-02T11:04:32;23.90;99.10
8436;DHT22;4255;48.730;9.156;2023-07-02T11:06:59;23.90;98.80
8436;DHT22;4255;48.730;9.156;2023-07-02T11:09:25;23.70;98.00
8436;DHT22;4255;48.730;9.156;2023-07-02T11:11:55;23.70;96.50
8436;DHT22;4255;48.730;9.156;2023-07-02T11:14:35;23.70;96.50
8436;DHT22;4255;48.730;9.156;2023-07-02T11:17:07;23.20;97.50
8436;DHT22;4255;48.730;9.156;2023-07-02T11:19:34;22.90;97.30
8436;DHT22;4255;48.730;9.156;2023-07-02T11:22:01;23.10;95.40
8436;DHT22;4255;48.730;9.156;2023-07-02T11:24:31;23.20;96.50
8436;DHT22;4255;48.730;9.156;2023-07-02T11:26:58;23.40;96.50
8436;DHT22;4255;48.730;9.156;2023-07-02T11:29:25;23.40;94.20
8436;DHT22;4255;48.730;9.156;2023-07-02T11:31:51;23.40;94.90
8436;DHT22;4255;48.730;9.156;2023-07-02T11:34:19;23.40;93.60
8436;DHT22;4255;48.730;9.156;2023-07-02T11:36:45;23.30;93.20
8436;DHT22;4255;48.730;9.156;2023-07-02T11:39:11;23.50;92.70
8436;DHT22;4255;48.730;9.156;2023-07-02T11:41:42;23.70;92.40
8436;DHT22;4255;48.730;9.156;2023-07-02T11:44:08;24.10;91.00
8436;DHT22;4255;48.730;9.156;2023-07-02T11:46:34;24.70;90.20
8436;DHT22;4255;48.730;9.156;2023-07-02T11:49:01;24.80;88.10
8436;DHT22;4255;48.730;9.156;2023-07-02T11:51:27;24.90;86.20
8436;DHT22;4255;48.730;9.156;2023-07-02T11:53:53;25.30;83.90
8436;DHT22;4255;48.730;9.156;2023-07-02T11:56:18;25.10;81.50
8436;DHT22;4255;48.730;9.156;2023-07-02T11:58:44;25.40;77.40
8436;DHT22;4255;48.730;9.156;2023-07-02T12:01:10;25.30;78.40
8436;DHT22;4255;48.730;9.156;2023-07-02T12:03:35;25.00;75.20
8436;DHT22;4255;48.730;9.156;2023-07-02T12:06:01;25.20;77.10
8436;DHT22;4255;48.730;9.156;2023-07-02T12:08:27;25.50;75.50
8436;DHT22;4255;48.730;9.156;2023-07-02T12:10:52;24.90;73.90
8436;DHT22;4255;48.730;9.156;2023-07-02T12:13:18;24.60;74.00
8436;DHT22;4255;48.730;9.156;2023-07-02T12:15:47;24.70;74.40
8436;DHT22;4255;48.730;9.156;2023-07-02T12:18:12;24.60;76.70
8436;DHT22;4255;48.730;9.156;2023-07-02T12:20:39;24.70;75.10
8436;DHT22;4255;48.730;9.156;2023-07-02T12:23:05;24.80;76.00
8436;DHT22;4255;48.730;9.156;2023-07-02T12:25:31;24.90;73.90
8436;DHT22;4255;48.730;9.156;2023-07-02T12:27:57;24.90;71.10
8436;DHT22;4255;48.730;9.156;2023-07-02T12:30:22;25.10;70.70
8436;DHT22;4255;48.730;9.156;2023-07-02T12:32:48;24.70;68.30
8436;DHT22;4255;48.730;9.156;2023-07-02T12:35:14;24.60;68.30
8436;DHT22;4255;48.730;9.156;2023-07-02T12:37:51;24.80;69.40
8436;DHT22;4255;48.730;9.156;2023-07-02T12:40:17;24.70;70.20
8436;DHT22;4255;48.730;9.156;2023-07-02T12:42:44;24.70;69.00
8436;DHT22;4255;48.730;9.156;2023-07-02T12:45:11;24.90;65.90
8436;DHT22;4255;48.730;9.156;2023-07-02T12:47:38;25.10;64.70
8436;DHT22;4255;48.730;9.156;2023-07-02T12:50:04;25.30;65.10
8436;DHT22;4255;48.730;9.156;2023-07-02T12:52:30;25.50;65.70
8436;DHT22;4255;48.730;9.156;2023-07-02T12:54:56;25.50;66.50
8436;DHT22;4255;48.730;9.156;2023-07-02T12:57:22;25.70;67.50
8436;DHT22;4255;48.730;9.156;2023-07-02T12:59:47;25.90;65.00
8436;DHT22;4255;48.730;9.156;2023-07-02T13:02:13;25.70;61.90
8436;DHT22;4255;48.730;9.156;2023-07-02T13:04:39;25.70;61.10
8436;DHT22;4255;48.730;9.156;2023-07-02T13:07:06;25.40;60.00
8436;DHT22;4255;48.730;9.156;2023-07-02T13:09:31;25.40;60.40
8436;DHT22;4255;48.730;9.156;2023-07-02T13:11:57;25.60;60.90
8436;DHT22;4255;48.730;9.156;2023-07-02T13:14:23;26.10;59.00
8436;DHT22;4255;48.730;9.156;2023-07-02T13:16:48;26.40;58.90
8436;DHT22;4255;48.730;9.156;2023-07-02T13:19:14;26.30;56.40
8436;DHT22;4255;48.730;9.156;2023-07-02T13:21:41;26.50;56.90
8436;DHT22;4255;48.730;9.156;2023-07-02T13:24:07;26.60;55.00
8436;DHT22;4255;48.730;9.156;2023-07-02T13:26:32;26.50;55.30
8436;DHT22;4255;48.730;9.156;2023-07-02T13:28:58;26.50;56.50
8436;DHT22;4255;48.730;9.156;2023-07-02T13:31:24;26.20;53.30
8436;DHT22;4255;48.730;9.156;2023-07-02T13:33:49;25.50;50.50
8436;DHT22;4255;48.730;9.156;2023-07-02T13:36:16;25.40;51.90
8436;DHT22;4255;48.730;9.156;2023-07-02T13:38:41;25.30;51.20
8436;DHT22;4255;48.730;9.156;2023-07-02T13:41:07;25.20;51.90
8436;DHT22;4255;48.730;9.156;2023-07-02T13:43:33;25.40;52.10
8436;DHT22;4255;48.730;9.156;2023-07-02T13:45:58;25.50;50.50
8436;DHT22;4255;48.730;9.156;2023-07-02T13:48:24;25.60;51.60
8436;DHT22;4255;48.730;9.156;2023-07-02T13:50:50;25.60;51.90
8436;DHT22;4255;48.730;9.156;2023-07-02T13:53:15;25.70;51.90
8436;DHT22;4255;48.730;9.156;2023-07-02T13:55:41;25.90;50.80
8436;DHT22;4255;48.730;9.156;2023-07-02T13:58:07;26.00;51.60
8436;DHT22;4255;48.730;9.156;2023-07-02T14:00:33;26.10;50.30
8436;DHT22;4255;48.730;9.156;2023-07-02T14:02:58;26.40;50.30
8436;DHT22;4255;48.730;9.156;2023-07-02T14:05:24;25.90;49.60
8436;DHT22;4255;48.730;9.156;2023-07-02T14:07:50;25.90;49.50
8436;DHT22;4255;48.730;9.156;2023-07-02T14:10:16;25.70;49.90
8436;DHT22;4255;48.730;9.156;2023-07-02T14:12:42;25.60;51.90
8436;DHT22;4255;48.730;9.156;2023-07-02T14:15:09;25.90;52.50
8436;DHT22;4255;48.730;9.156;2023-07-02T14:17:35;26.20;48.90
8436;DHT22;4255;48.730;9.156;2023-07-02T14:20:01;26.20;48.80
8436;DHT22;4255;48.730;9.156;2023-07-02T14:22:27;26.50;49.50
8436;DHT22;4255;48.730;9.156;2023-07-02T14:24:53;26.50;49.80
8436;DHT22;4255;48.730;9.156;2023-07-02T14:27:19;26.20;49.60
8436;DHT22;4255;48.730;9.156;2023-07-02T14:29:44;25.80;50.40
8436;DHT22;4255;48.730;9.156;2023-07-02T14:32:13;25.70;50.90
8436;DHT22;4255;48.730;9.156;2023-07-02T14:34:39;25.80;51.10
8436;DHT22;4255;48.730;9.156;2023-07-02T14:37:05;25.90;51.50
8436;DHT22;4255;48.730;9.156;2023-07-02T14:39:31;25.90;50.30
8436;DHT22;4255;48.730;9.156;2023-07-02T14:41:57;25.90;49.80
8436;DHT22;4255;48.730;9.156;2023-07-02T14:44:24;25.90;49.80
8436;DHT22;4255;48.730;9.156;2023-07-02T14:46:49;26.00;49.30
8436;DHT22;4255;48.730;9.156;2023-07-02T14:49:15;26.10;49.80
8436;DHT22;4255;48.730;9.156;2023-07-02T14:51:41;26.00;50.00
8436;DHT22;4255;48.730;9.156;2023-07-02T14:54:07;25.70;50.40
8436;DHT22;4255;48.730;9.156;2023-07-02T14:56:33;25.80;49.80
8436;DHT22;4255;48.730;9.156;2023-07-02T14:59:01;25.60;50.40
8436;DHT22;4255;48.730;9.156;2023-07-02T15:01:27;25.60;50.70
8436;DHT22;4255;48.730;9.156;2023-07-02T15:03:53;26.00;51.80
8436;DHT22;4255;48.730;9.156;2023-07-02T15:06:18;26.40;49.80
8436;DHT22;4255;48.730;9.156;2023-07-02T15:08:44;26.60;49.00
8436;DHT22;4255;48.730;9.156;2023-07-02T15:11:12;26.60;49.10
8436;DHT22;4255;48.730;9.156;2023-07-02T15:13:38;26.60;49.70
8436;DHT22;4255;48.730;9.156;2023-07-02T15:16:04;26.90;49.60
8436;DHT22;4255;48.730;9.156;2023-07-02T15:18:30;27.00;49.20
8436;DHT22;4255;48.730;9.156;2023-07-02T15:20:56;26.90;48.60
8436;DHT22;4255;48.730;9.156;2023-07-02T15:23:25;26.70;49.10
8436;DHT22;4255;48.730;9.156;2023-07-02T15:26:02;26.60;49.10
8436;DHT22;4255;48.730;9.156;2023-07-02T15:28:28;26.80;49.40
8436;DHT22;4255;48.730;9.156;2023-07-02T15:30:57;26.60;47.70
8436;DHT22;4255;48.730;9.156;2023-07-02T15:33:23;26.50;48.20
8436;DHT22;4255;48.730;9.156;2023-07-02T15:35:49;26.30;47.70
8436;DHT22;4255;48.730;9.156;2023-07-02T15:38:15;26.50;47.90
8436;DHT22;4255;48.730;9.156;2023-07-02T15:40:42;26.80;49.40
8436;DHT22;4255;48.730;9.156;2023-07-02T15:43:08;26.70;48.40
8436;DHT22;4255;48.730;9.156;2023-07-02T15:45:35;26.30;49.10
8436;DHT22;4255;48.730;9.156;2023-07-02T15:48:01;26.10;48.80
8436;DHT22;4255;48.730;9.156;2023-07-02T15:50:27;26.20;50.10
8436;DHT22;4255;48.730;9.156;2023-07-02T15:52:52;26.20;49.60
8436;DHT22;4255;48.730;9.156;2023-07-02T15:55:19;26.10;50.30
8436;DHT22;4255;48.730;9.156;2023-07-02T15:57:45;26.20;49.40
8436;DHT22;4255;48.730;9.156;2023-07-02T16:00:11;26.00;49.60
8436;DHT22;4255;48.730;9.156;2023-07-02T16:02:37;26.00;49.30
8436;DHT22;4255;48.730;9.156;2023-07-02T16:05:03;26.20;48.80